Category Name Link Size Date
Audio - Lossy [2024.11.02] BanG Dream! MyGO!!!!! - 霧周途 [MP3 320K] 9.5 MiB 2024-11-01 11:14 3 0 1678
Audio - Lossless [2024.11.02] BanG Dream! MyGO!!!!! - 霧周途 [FLAC 96kHz/24bit] 86.2 MiB 2024-11-01 11:14 13 0 1286
Audio - Lossless Nanase Aikawa - Sweet Emotion (1997) (FLAC) 116.4 MiB 2024-10-31 21:49 0 0 498
Audio - Lossy PAS TASTA 2nd Album GRAND POP 51.0 MiB 2024-10-31 21:38 1 0 292
Audio - Lossless [2024.11.01] Mili - Hero [FLAC 96kHz/24bit] 65.9 MiB 2024-10-31 21:34 6 0 1303
Audio - Lossless [2024.10.31] hololive Mori Calliope x PES - FLASH BANG [FLAC 48kHz/24bit] 45.1 MiB 2024-10-31 21:34 12 0 1974
Audio - Lossless PAS TASTA 1st Album GOOD POP 155.5 MiB 2024-10-31 21:27 2 0 339
Audio - Lossless [2024.10.31] TVドラマ「わたしの宝物」主題歌「明日」/野田愛実 [FLAC 48kHz/24bit] 41.5 MiB 2024-10-30 16:25 0 0 1048
Audio - Lossless [2024.10.30] TVドラマ「ウイングマン」EDテーマ「yoin」/Nowlu [FLAC] 19.6 MiB 2024-10-30 16:25 1 0 1326
Audio - Lossy [2024.10.31] ゲーム「勝利の女神:NIKKE」2周年記念ソング「オリジン」/yama [MP3 320K] 8.1 MiB 2024-10-30 12:09 2 0 2143
Audio - Lossless [2024.10.31] ゲーム「勝利の女神:NIKKE」2周年記念ソング「オリジン」/yama [FLAC 48kHz/24bit] 46.4 MiB 2024-10-30 12:09 1 0 1332
Audio - Lossy MOGRA ANISON MATRIX!! 2024-10-05.m4a 857.3 MiB 2024-10-30 11:43 1 0 216
Audio - Lossless [2024.10.30] 映画「あたしの!」挿入歌「シナモン」/チョーキューメイ [FLAC 48kHz/24bit] 52.1 MiB 2024-10-29 21:37 0 1 817
Audio - Lossless [2024.10.30] 映画「アングリースクワッド 公務員と7人の詐欺師」主題歌「名前を忘れたままのあの日の鼓動 feat. 峯田和伸」/KERENMI [FLAC] 26.0 MiB 2024-10-29 21:37 0 0 702
Audio - Lossless [2024.10.30] ファントムシータ 1stアルバム「少女の日の思い出」[FLAC 48kHz/24bit] 333.2 MiB 2024-10-29 18:27 5 0 1474
Audio - Lossless [2024.10.30] hololive AZKi - 少年よ我に帰れ [FLAC 48kHz/24bit] 83.4 MiB 2024-10-29 18:27 11 1 2335
Audio - Lossless 1 [2024.10.30] 夏川椎菜 9thシングル「later」[FLAC 96kHz/24bit] 324.1 MiB 2024-10-29 18:27 0 0 1056
Audio - Lossless [2024.10.30] 内田真礼×内田雄馬 コラボシングル「Carnival/BIG LOVE」[FLAC 96kHz/24bit] 357.2 MiB 2024-10-29 18:27 0 0 1128
Audio - Lossless [2024.10.30] TVアニメ「MFゴースト 2nd Season」OPテーマ「ROCK ME KISS ME feat. MOTSU」/芹澤優 [FLAC 96kHz/24bit] 705.1 MiB 2024-10-29 18:27 5 1 2491
Audio - Lossless [2024.10.30] TVアニメ「シンカリオン チェンジ ザ ワールド」ED3主題歌「Seagull」/山本彩 [FLAC] 30.3 MiB 2024-10-29 18:26 0 0 1077
Audio - Lossless [2024.10.30] TVアニメ「きのこいぬ」EDテーマ「Heart b-b-beat!!」/IBERIs& [FLAC] 58.1 MiB 2024-10-29 18:26 0 0 1094
Audio - Lossless [2024.10.30] TVアニメ「なぜ僕の世界を誰も覚えていないのか?」ED2テーマ「愛、アムネシア」/アーバンギャルド [FLAC] 223.7 MiB 2024-10-29 18:26 1 0 986
Audio - Lossless [2024.10.30] TVドラマ「私の町の千葉くんは。」OPテーマ「Bubbles」/WILD BLUE [FLAC 48kHz/24bit] 48.6 MiB 2024-10-29 18:26 0 0 780
Audio - Lossless [2024.10.30] TVドラマ「私の町の千葉くんは。」EDテーマ「この世界に映っているのは」/SooYoung [FLAC] 103.8 MiB 2024-10-29 18:26 0 0 774
Audio - Lossy [2024.10.30] ゲーム「フェスティバトル」挿入歌「SONG FOR…」/アイリス(CV.堀江由衣) [MP3 320K] 19.5 MiB 2024-10-29 17:32 0 0 1293
Audio - Lossless [2024.10.30] ゲーム「フェスティバトル」挿入歌「SONG FOR…」/アイリス(CV.堀江由衣) [FLAC 48kHz/24bit] 108.6 MiB 2024-10-29 17:32 0 0 771
Audio - Lossy [2024.10.30] TVアニメ「なぜ僕の世界を誰も覚えていないのか?」キャラクターソング [MP3 320K] 65.8 MiB 2024-10-29 17:08 2 0 1242
Audio - Lossless [2024.10.30] TVアニメ「なぜ僕の世界を誰も覚えていないのか?」キャラクターソング [FLAC 48kHz/24bit] 358.3 MiB 2024-10-29 17:08 0 1 716
Audio - Lossy [2024.10.30] 諏訪ななか 2ndコンセプトミニアルバム「足跡が紡ぐ世界」(TVアニメ「精霊幻想記2」EDテーマ「春待歌」) [MP3 320K] 90.9 MiB 2024-10-29 12:45 3 0 1863
Audio - Lossless [2024.10.30] 諏訪ななか 2ndコンセプトミニアルバム「足跡が紡ぐ世界」(TVアニメ「精霊幻想記2」EDテーマ「春待歌」) [FLAC] 277.4 MiB 2024-10-29 12:45 1 1 1047
Audio - Lossy [2024.10.30] TVアニメ「アクロトリップ」EDテーマ「リバーシブルベイベー」/カノエラナ [MP3 320K] 28.1 MiB 2024-10-29 12:36 0 0 1493
Audio - Lossless [2024.10.30] TVアニメ「アクロトリップ」EDテーマ「リバーシブルベイベー」/カノエラナ [FLAC] 87.3 MiB 2024-10-29 12:36 2 0 753
Audio - Lossy [2024.10.30] TVアニメ「青のミブロ」OPテーマ「青」/SPYAIR [MP3 320K] 33.8 MiB 2024-10-29 12:28 2 0 1575
Audio - Lossless [2024.10.30] TVアニメ「青のミブロ」OPテーマ「青」/SPYAIR [FLAC] 108.0 MiB 2024-10-29 12:28 1 0 723
Audio - Lossy [2024.10.30] TVアニメ「アイドルマスター シャイニーカラーズ 2nd Season」ハロウィンアルバム「Happy Surprise Trick!」[MP3 320K] 90.7 MiB 2024-10-29 12:09 2 0 1688
Audio - Lossless [2024.10.30] TVアニメ「アイドルマスター シャイニーカラーズ 2nd Season」ハロウィンアルバム「Happy Surprise Trick!」[FLAC 96kHz/24bit] 894.4 MiB 2024-10-29 12:09 2 1 879
Audio - Lossy 1 [2024.10.30] BanG Dream! ガールズバンドパーティ! カバーコレクション Vol.9 [MP3 320K] 188.0 MiB 2024-10-29 11:52 6 0 2717
Audio - Lossless [2024.10.30] BanG Dream! ガールズバンドパーティ! カバーコレクション Vol.9 [FLAC 96kHz/24bit] 1.6 GiB 2024-10-29 11:52 11 1 1658
Audio - Lossy [2024.10.30] プロジェクトセカイ カラフルステージ! feat.初音ミク ワンダーランズ×ショウタイム 9thシングル「世界を照らすテトラッド/サイバーパンクデッドボーイ」[MP3 320K] 20.8 MiB 2024-10-29 11:36 0 0 1169
Audio - Lossless [2024.10.30] プロジェクトセカイ カラフルステージ! feat.初音ミク ワンダーランズ×ショウタイム 9thシングル「世界を照らすテトラッド/サイバーパンクデッドボーイ」[FLAC] 66.5 MiB 2024-10-29 11:36 7 0 933
Audio - Lossy [2024.10.30] IDOLY PRIDE 赤崎こころ(CV.豊崎愛生)×kana(CV.田中あいみ) - 天使と悪魔 [MP3 320K] 10.5 MiB 2024-10-29 11:36 1 0 1269
Audio - Lossless [2024.10.30] IDOLY PRIDE 赤崎こころ(CV.豊崎愛生)×kana(CV.田中あいみ) - 天使と悪魔 [FLAC 96kHz/24bit] 96.2 MiB 2024-10-29 11:36 4 0 795
Audio - Lossy [2024.10.30] TVアニメ「ガールズバンドクライ」トゲナシトゲアリ オリジナルソングCD 5「生きて生きてゆく」[MP3 320K] 17.0 MiB 2024-10-29 08:07 4 0 2165
Audio - Lossless [2024.10.30] TVアニメ「ガールズバンドクライ」トゲナシトゲアリ オリジナルソングCD 5「生きて生きてゆく」[FLAC] 47.5 MiB 2024-10-29 08:07 14 0 1842
Audio - Lossless Manami Komori - JEWEL (2024)[FLAC+IMG]{Deezer} 1.4 GiB 2024-10-29 05:06 2 0 421
Audio - Lossy Yume Nikki music collection (fangames, gamerips, etc.)[mp3] 3.2 GiB 2024-10-28 19:48 1 0 204
Audio - Lossless Space Battleship Yamato 2199 Theme Song Collection [FLAC] 365.7 MiB 2024-10-28 18:42 2 0 1025
Audio - Lossless [M3-28] RoarAddiction (xenothium) - The Microbe (RACD-0003) [FLAC] 260.6 MiB 2024-10-28 15:41 0 1 198
Audio - Lossless [2024.10.28] 実写ドラマ「【推しの子】」第1話主題歌「アクマ」/MY FIRST STORY [FLAC] 30.9 MiB 2024-10-27 19:39 3 0 1920
Audio - Lossless [2024.10.28] TVアニメ「MFゴースト 2nd Season」EDテーマ「Side U (Prod. AmPm)」/Himika Akaneya [FLAC 96kHz/24bit] 79.7 MiB 2024-10-27 19:39 3 0 1942
Audio - Lossless [2024.10.28] TVアニメ「FAIRY TAIL 100年クエスト」OP2テーマ「Endless Happy-Ending」/THE RAMPAGE from EXILE TRIBE [FLAC 48kHz/24bit] 179.6 MiB 2024-10-27 19:39 1 0 1200
Audio - Lossless [2024.10.28] TVドラマ「ゴールデンカムイ-北海道刺青囚人争奪編-」第5話EDテーマ「毒矢」/名無し之太郎 [FLAC 48kHz/24bit] 59.3 MiB 2024-10-27 19:39 1 1 867
Audio - Lossless [2024.10.22] TVドラマ「バツコイ」EDテーマ「Love Letter」/GOOD BYE APRIL [FLAC] 27.4 MiB 2024-10-27 19:39 1 0 713
Audio - Lossy THE IDOLM@STER SideM Music Collection (2015-2024.9) [MP3] 9.0 GiB 2024-10-27 08:25 6 1 445
Audio - Lossless [AGM22] FLAC Anime and Games Music Collection v2 part 2 106.8 GiB 2024-10-26 23:11 8 2 442
Audio - Lossless [HAYAKU][2023.07.05] 東京ミュウミュウ にゅ~ そうにゅ~か! [CD][FLAC+CUE+LOG+BK][PCCG-02255] 719.4 MiB 2024-10-26 14:44 3 0 374
Audio - Lossless [HAYAKU][2024.03.20] IDOLY PRIDE Collection Album [Chronicle] [CD][FLAC+CUE+LOG+BK][SMCL-877] 923.9 MiB 2024-10-26 14:39 5 0 536
Audio - Lossless Ignis - nulla (2024) [FLAC] 83.2 MiB 2024-10-26 01:37 1 0 339
Audio - Lossless [HAYAKU][2024.02.28] TVアニメ『ぽんのみち』OPテーマ - 中田花奈 feat. ぽんのみちオールスターズ - ポンポポポン [CD][FLAC+CUE+LOG+BK][VVCL-2412] 896.4 MiB 2024-10-25 19:09 1 1 563
Audio - Lossless 1 [2024.10.26] hololive English Eurobeat Remix Album [FLAC 48kHz/24bit] 792.3 MiB 2024-10-25 16:48 25 0 2794
Audio - Lossless [2024.10.25] TVドラマ「マイダイアリー」主題歌「くせげ」/Saucy Dog [FLAC] 31.3 MiB 2024-10-25 05:33 1 0 823
Audio - Lossless [2024.07.22] ブルーアーカイブ 絆ダイアローグ Vol. 3「ヒフミ」 - ヒフミ(CV:本渡楓) [WAV+FLAC+CUE+JPG][BACD-0026][自购自抓自扫] 129.5 MiB 2024-10-25 04:49 4 0 729
Audio - Lossless 1 [2024.10.25] ONE OK ROCK - Dystopia [FLAC 48kHz/24bit] 85.2 MiB 2024-10-24 21:08 4 1 1606
Audio - Lossless [2024.10.25] アニメ「Duel Masters LOST ~追憶の水晶~」ED主題歌「カンターレ」/ニイカ(CV꞉菱川花菜) [FLAC 48kHz/24bit] 44.2 MiB 2024-10-24 21:08 3 0 842
Audio - Lossless [2024.10.22] TVドラマ「バツコイ」OPテーマ「ワタシ、ナンテ、イイ女」/.BPM [FLAC] 219.5 MiB 2024-10-24 21:08 2 0 645
Audio - Lossless [2024.10.16] TVドラマ「デスゲームで待ってる」OPテーマ「怪人」/NIKO NIKO TAN TAN [FLAC 48kHz/24bit] 43.7 MiB 2024-10-24 21:08 1 0 720
Audio - Lossy [2024.08.21] スクールアイドルミュージカル 椿滝桜女学院高等学校スクールアイドル部 後夜祭アルバム! [MP3 320K] 102.1 MiB 2024-10-24 15:15 3 0 1184
Audio - Lossless [2024.08.21] スクールアイドルミュージカル 椿滝桜女学院高等学校スクールアイドル部 後夜祭アルバム! [FLAC] 291.5 MiB 2024-10-24 15:15 2 0 669
Audio - Lossless 1 [2024.10.16] 【宝鐘マリン 1stアルバム】ー「Ahoy!! キミたちみんなパイレーツ♡」 ≀ Houshou Marine 1st Album - Ahoy!! You're All Pirates♡ ≀ [FLAC 44kHz/16bit][BDMV][数量限定盤] 7.8 GiB 2024-10-24 03:53 13 2 1553
Audio - Lossless 1 [2024.10.04] The Colors Within (Original Motion Picture Soundtrack) [FLAC 96kHz/24bit] 1.4 GiB 2024-10-24 03:19 11 0 951
Audio - Lossless [2024.10.24] Ado 1st両A面CDシングル「桜日和とタイムマシン with 初音ミク/初夏」[通常盤(初回プレス)][FLAC+CUE+LOG+SCANS] 1.3 GiB 2024-10-23 17:38 8 0 2088
Audio - Lossless [2024.10.24] TVアニメ「さようなら竜生、こんにちは人生」EDテーマ「君と見た景色」/EverdreaM [FLAC 48kHz/24bit] 60.4 MiB 2024-10-23 17:38 1 0 1113
Audio - Lossless 1 [KOTE] ARMORED CORE VI ORIGINAL SOUNDTRACK [FLAC] 1.0 GiB 2024-10-23 12:42 9 0 1396
Audio - Lossy [2024.10.24] Ado 1stシングル「桜日和とタイムマシン/初夏」[MP3 320K] 45.3 MiB 2024-10-23 10:48 3 0 2529
Audio - Lossless [2024.10.24] Ado 1stシングル「桜日和とタイムマシン/初夏」[FLAC] 131.3 MiB 2024-10-23 10:48 2 1 1885